Time;durP1;ratioP1;P1;durP2;ratioP2;P2;SDS_P1;SDS_P2;PMS_P1;PMS_P2;Temp;Humidity;BMP_temperature;BMP_pressure;BME280_temperature;BME280_humidity;BME280_pressure;Samples;Min_cycle;Max_cycle;Signal;HPM_P1;HPM_P2
2022/05/03 00:02:05;;;;;;;7.22;4.32;;;;;;;11.05;100.00;99552.75;6253238;22;20030;-63
2022/05/03 00:05:15;;;;;;;9.47;4.67;;;;;;;11.11;100.00;99587.94;6253199;22;20026;-63
2022/05/03 00:08:45;;;;;;;11.32;5.07;;;;;;;10.94;100.00;99590.16;6286544;22;20035;-64
2022/05/03 00:11:44;;;;;;;10.48;4.95;;;;;;;10.76;100.00;99584.44;6252643;22;20035;-64
2022/05/03 00:14:36;;;;;;;10.70;5.15;;;;;;;10.74;100.00;99580.91;6286535;22;20042;-63
2022/05/03 00:17:22;;;;;;;10.57;5.70;;;;;;;10.85;100.00;99578.91;6262910;22;20038;-63
2022/05/03 00:20:07;;;;;;;9.50;4.95;;;;;;;11.09;100.00;99572.97;6286308;22;20085;-65
2022/05/03 00:22:51;;;;;;;10.65;5.22;;;;;;;11.22;100.00;99569.97;6263064;22;20472;-63
2022/05/03 00:25:37;;;;;;;12.93;4.82;;;;;;;11.33;100.00;99567.94;6252376;22;20103;-65
2022/05/03 00:28:22;;;;;;;11.30;4.90;;;;;;;11.28;100.00;99569.81;6231185;22;20058;-63
2022/05/03 00:31:07;;;;;;;13.27;4.80;;;;;;;11.15;100.00;99552.47;6286565;22;20027;-64
2022/05/03 00:33:54;;;;;;;6.40;4.65;;;;;;;11.08;100.00;99553.53;6263154;22;20073;-63
2022/05/03 00:36:38;;;;;;;11.02;4.70;;;;;;;11.19;100.00;99567.41;6286164;22;20046;-63
2022/05/03 00:39:22;;;;;;;8.90;4.75;;;;;;;11.04;100.00;99561.63;6252462;22;20354;-64
2022/05/03 00:42:23;;;;;;;9.73;4.43;;;;;;;10.98;100.00;99561.75;6286028;22;20053;-62
2022/05/03 00:45:39;;;;;;;7.68;4.60;;;;;;;10.94;100.00;99546.81;6285750;22;20103;-61
2022/05/03 00:48:29;;;;;;;8.13;4.25;;;;;;;11.11;100.00;99550.81;6192353;23;20032;-62
2022/05/03 00:51:23;;;;;;;10.00;4.97;;;;;;;10.98;100.00;99551.16;6191916;23;20031;-63
2022/05/03 00:54:33;;;;;;;11.90;5.57;;;;;;;10.87;100.00;99543.47;6192046;23;20028;-62
2022/05/03 00:57:25;;;;;;;11.95;5.10;;;;;;;10.63;100.00;99540.53;6191891;23;20101;-62
2022/05/03 01:00:13;;;;;;;12.30;5.32;;;;;;;10.59;100.00;99538.84;6149931;23;20521;-61
2022/05/03 01:03:09;;;;;;;10.63;5.30;;;;;;;10.53;100.00;99541.66;6171165;23;20075;-61
2022/05/03 01:06:14;;;;;;;7.53;5.20;;;;;;;10.68;100.00;99528.91;6191918;23;20087;-63
2022/05/03 01:09:09;;;;;;;10.90;5.13;;;;;;;10.52;100.00;99537.28;6171197;23;20064;-62
2022/05/03 01:12:01;;;;;;;13.98;5.50;;;;;;;10.30;100.00;99521.00;6192384;23;20586;-61
2022/05/03 01:15:01;;;;;;;9.13;5.45;;;;;;;10.36;100.00;99531.44;6171508;23;20428;-61
2022/05/03 01:18:08;;;;;;;8.38;5.05;;;;;;;10.45;100.00;99535.69;6160419;23;20076;-62
2022/05/03 01:20:56;;;;;;;7.68;5.18;;;;;;;10.30;100.00;99489.19;6245092;23;20050;-61
2022/05/03 01:24:00;;;;;;;7.80;4.85;;;;;;;10.43;100.00;99546.31;6232089;23;20046;-61
2022/05/03 01:27:13;;;;;;;9.07;4.25;;;;;;;10.33;100.00;99530.66;6232358;23;20143;-61
2022/05/03 01:29:59;;;;;;;9.88;4.68;;;;;;;10.22;100.00;99514.13;6254659;23;20077;-61
2022/05/03 01:32:44;;;;;;;11.25;5.60;;;;;;;10.37;100.00;99517.31;6243663;23;20493;-61
2022/05/03 01:35:37;;;;;;;8.93;4.95;;;;;;;10.63;100.00;99514.00;6231540;23;20047;-62
2022/05/03 01:38:31;;;;;;;11.05;5.38;;;;;;;10.58;100.00;99478.78;6255465;23;20030;-61
2022/05/03 01:41:33;;;;;;;7.03;4.95;;;;;;;10.55;100.00;99482.41;6200936;23;20078;-61
2022/05/03 01:44:27;;;;;;;10.05;5.43;;;;;;;10.70;100.00;99511.19;6254528;23;20067;-60
2022/05/03 01:47:23;;;;;;;8.93;5.70;;;;;;;10.78;100.00;99505.69;6254813;23;20465;-61
2022/05/03 01:50:19;;;;;;;8.63;5.45;;;;;;;10.86;100.00;99514.31;6225023;23;20030;-61
2022/05/03 01:53:22;;;;;;;;;;;;;;;10.73;100.00;99515.53;6253988;23;20405;-61
2022/05/03 01:56:36;;;;;;;9.05;5.28;;;;;;;10.73;100.00;99504.94;6254886;23;19922;-61
2022/05/03 01:59:30;;;;;;;8.85;4.70;;;;;;;10.70;100.00;99505.88;6253688;23;20042;-60
2022/05/03 02:02:40;;;;;;;7.93;5.20;;;;;;;10.70;100.00;99505.88;6254821;23;20062;-61
2022/05/03 02:05:58;;;;;;;11.63;5.03;;;;;;;10.81;100.00;99509.16;6255300;23;20074;-61
2022/05/03 02:09:05;;;;;;;6.97;4.88;;;;;;;10.95;100.00;99504.34;6243160;23;20117;-62
2022/05/03 02:12:12;;;;;;;8.75;4.72;;;;;;;11.00;100.00;99505.09;6255526;23;20486;-61
2022/05/03 02:15:05;;;;;;;7.38;4.85;;;;;;;10.88;100.00;99499.25;6255390;23;20111;-61
2022/05/03 02:17:49;;;;;;;8.23;4.82;;;;;;;10.93;100.00;99508.84;6255587;23;20034;-62
2022/05/03 02:20:54;;;;;;;9.85;5.20;;;;;;;11.05;100.00;99503.22;6256544;23;20042;-61
2022/05/03 02:24:07;;;;;;;8.15;4.78;;;;;;;11.03;100.00;99494.41;6256391;23;20101;-62
2022/05/03 02:27:11;;;;;;;6.13;4.60;;;;;;;11.04;100.00;99490.00;6246201;23;20081;-62
2022/05/03 02:29:57;;;;;;;7.30;5.13;;;;;;;10.91;100.00;99502.69;6256859;23;20408;-63
2022/05/03 02:32:57;;;;;;;6.88;4.78;;;;;;;10.97;100.00;99496.34;6256429;23;20077;-61
2022/05/03 02:35:48;;;;;;;5.97;4.35;;;;;;;10.74;100.00;99496.06;6255667;23;20470;-61
2022/05/03 02:38:37;;;;;;;8.90;4.97;;;;;;;10.56;100.00;99499.19;6255311;23;20093;-62
2022/05/03 02:41:24;;;;;;;6.93;4.90;;;;;;;10.46;100.00;99492.34;6256424;23;20031;-60
2022/05/03 02:44:12;;;;;;;8.95;5.47;;;;;;;10.36;100.00;99494.34;6256633;23;20030;-62
2022/05/03 02:47:06;;;;;;;9.60;5.00;;;;;;;10.36;100.00;99493.50;6255195;23;20058;-61
2022/05/03 02:49:53;;;;;;;11.23;4.57;;;;;;;10.44;100.00;99497.69;6264451;22;20468;-62
2022/05/03 02:52:58;;;;;;;9.77;4.70;;;;;;;10.47;100.00;99488.78;6287412;22;20102;-62
2022/05/03 02:55:45;;;;;;;8.80;4.80;;;;;;;10.25;100.00;99488.44;6264479;22;20533;-62
2022/05/03 02:58:53;;;;;;;8.13;4.80;;;;;;;10.46;100.00;99489.69;6264319;22;20408;-62
2022/05/03 03:01:56;;;;;;;6.88;4.40;;;;;;;10.63;100.00;99480.44;6264168;22;20047;-61
2022/05/03 03:05:03;;;;;;;6.13;4.60;;;;;;;10.77;100.00;99483.63;6232049;22;20036;-62
2022/05/03 03:08:01;;;;;;;13.13;4.90;;;;;;;10.57;100.00;99477.94;6287391;22;20398;-62
2022/05/03 03:10:56;;;;;;;6.55;4.43;;;;;;;10.40;100.00;99452.75;6287200;22;20233;-61
2022/05/03 03:13:40;;;;;;;5.55;4.53;;;;;;;10.60;100.00;99479.66;6253345;22;20469;-62
2022/05/03 03:16:33;;;;;;;6.97;4.35;;;;;;;10.59;100.00;99475.22;6287197;22;20088;-61
2022/05/03 03:19:52;;;;;;;6.03;4.40;;;;;;;10.60;100.00;99475.19;6253592;22;20026;-61
2022/05/03 03:22:39;;;;;;;7.00;4.57;;;;;;;10.60;100.00;99477.00;6276095;22;20034;-62
2022/05/03 03:25:24;;;;;;;6.55;4.35;;;;;;;10.54;100.00;99462.09;6286403;22;20026;-62
2022/05/03 03:28:12;;;;;;;9.13;4.70;;;;;;;10.70;100.00;99463.47;6286994;22;20501;-62
2022/05/03 03:31:00;;;;;;;6.75;4.53;;;;;;;10.71;100.00;99477.56;6287038;22;20393;-62
2022/05/03 03:33:46;;;;;;;9.13;4.82;;;;;;;10.64;100.00;99466.25;6253305;22;20030;-62
2022/05/03 03:36:31;;;;;;;8.02;4.82;;;;;;;10.67;100.00;99462.66;6276294;22;20126;-62
2022/05/03 03:39:15;;;;;;;7.63;4.45;;;;;;;10.78;100.00;99458.84;6231625;22;20026;-63
2022/05/03 03:42:05;;;;;;;8.02;4.35;;;;;;;10.89;100.00;99448.81;6286247;22;20489;-62
2022/05/03 03:44:51;;;;;;;7.13;4.93;;;;;;;10.76;100.00;99444.72;6286863;22;20218;-62
2022/05/03 03:47:37;;;;;;;6.78;4.05;;;;;;;10.82;100.00;99422.47;6252576;22;20022;-62
2022/05/03 03:50:25;;;;;;;11.95;4.63;;;;;;;10.89;100.00;99443.53;6244083;22;20306;-62
2022/05/03 03:53:10;;;;;;;5.13;4.32;;;;;;;11.15;100.00;99429.56;6278527;22;20162;-62
2022/05/03 03:55:54;;;;;;;9.27;5.07;;;;;;;11.23;100.00;99399.22;6279025;22;20071;-62
2022/05/03 03:58:39;;;;;;;8.07;4.72;;;;;;;11.28;100.00;99430.94;6248670;22;20054;-61
2022/05/03 04:01:24;;;;;;;6.28;4.22;;;;;;;11.41;100.00;99438.53;6272135;22;20058;-62
2022/05/03 04:04:11;;;;;;;6.32;4.55;;;;;;;11.58;100.00;99438.88;6237286;22;20042;-62
2022/05/03 04:06:55;;;;;;;8.98;4.60;;;;;;;11.78;100.00;99440.97;6281566;22;20027;-62
2022/05/03 04:09:39;;;;;;;8.20;4.53;;;;;;;11.80;100.00;99392.22;6279098;22;20069;-65
2022/05/03 04:12:25;;;;;;;6.80;4.45;;;;;;;12.21;100.00;99429.00;6281144;22;20046;-63
2022/05/03 04:15:09;;;;;;;5.10;4.32;;;;;;;12.28;100.00;99427.88;6279100;22;20465;-63
2022/05/03 04:17:54;;;;;;;;;;;;;;;12.15;100.00;99423.00;6258920;22;20030;-61
2022/05/03 04:20:37;;;;;;;5.68;4.13;;;;;;;12.16;100.00;99433.59;6280765;22;20365;-64
2022/05/03 04:23:22;;;;;;;7.22;4.20;;;;;;;12.04;100.00;99430.44;6271004;22;20042;-63
2022/05/03 04:26:09;;;;;;;7.93;4.45;;;;;;;12.34;100.00;99418.84;6236865;22;20111;-62
2022/05/03 04:28:58;;;;;;;10.02;4.20;;;;;;;12.58;100.00;99420.69;6256245;22;20126;-66
2022/05/03 04:31:43;;;;;;;5.80;3.80;;;;;;;12.66;100.00;99418.63;6248035;22;20081;-62
2022/05/03 04:34:28;;;;;;;5.85;3.95;;;;;;;12.56;100.00;99395.91;6279240;22;20504;-61
2022/05/03 04:37:13;;;;;;;5.85;3.90;;;;;;;12.84;100.00;99413.56;6281115;22;20180;-60
2022/05/03 04:39:58;;;;;;;9.07;4.15;;;;;;;12.94;100.00;99412.28;6281113;22;20034;-63
2022/05/03 04:42:42;;;;;;;8.20;4.40;;;;;;;12.76;100.00;99399.66;6281092;22;20035;-63
2022/05/03 04:45:26;;;;;;;7.85;4.43;;;;;;;12.72;100.00;99402.44;6285255;22;20023;-62
2022/05/03 04:48:11;;;;;;;5.85;4.38;;;;;;;12.82;100.00;99367.47;6275094;22;20027;-61
2022/05/03 04:50:55;;;;;;;8.52;4.18;;;;;;;13.36;100.00;99401.91;6285707;22;20026;-62
2022/05/03 04:53:39;;;;;;;4.93;3.90;;;;;;;13.58;100.00;99410.88;6285158;22;20588;-63
2022/05/03 04:56:25;;;;;;;5.28;3.40;;;;;;;13.35;100.00;99401.06;6286187;22;20046;-63
2022/05/03 04:59:09;;;;;;;6.70;4.15;;;;;;;13.23;100.00;99405.97;6285092;22;20061;-62
2022/05/03 05:01:54;;;;;;;5.88;3.80;;;;;;;12.98;100.00;99405.97;6252378;22;20077;-63
2022/05/03 05:04:38;;;;;;;3.65;3.33;;;;;;;12.87;100.00;99393.94;6285046;22;20428;-63
2022/05/03 05:07:23;;;;;;;4.70;3.80;;;;;;;12.74;100.00;99396.16;6262820;22;20093;-63
2022/05/03 05:10:23;;;;;;;4.93;3.50;;;;;;;12.83;100.00;99400.28;6262412;22;20089;-64
2022/05/03 05:13:07;;;;;;;4.57;3.65;;;;;;;12.75;100.00;99403.19;6285665;22;20027;-63
2022/05/03 05:15:51;;;;;;;5.80;4.00;;;;;;;12.75;100.00;99397.88;6285102;22;20038;-62
2022/05/03 05:18:36;;;;;;;12.68;4.00;;;;;;;12.92;100.00;99400.84;6262428;22;20400;-63
2022/05/03 05:21:20;;;;;;;7.28;4.00;;;;;;;12.93;100.00;99389.28;6285526;22;20480;-62
2022/05/03 05:24:10;;;;;;;8.55;3.90;;;;;;;12.96;100.00;99381.19;6262635;22;20042;-62
2022/05/03 05:26:54;;;;;;;7.18;4.10;;;;;;;13.22;100.00;99383.78;6252129;22;20074;-63
2022/05/03 05:29:38;;;;;;;5.60;3.97;;;;;;;13.20;100.00;99383.00;6285424;22;20523;-63
2022/05/03 05:32:23;;;;;;;4.20;3.72;;;;;;;13.19;100.00;99373.28;6251963;22;20073;-63
2022/05/03 05:35:07;;;;;;;6.95;3.75;;;;;;;13.47;100.00;99375.75;6285465;22;20026;-65
2022/05/03 05:37:52;;;;;;;7.68;4.40;;;;;;;13.70;100.00;99383.75;6284511;22;20029;-64
2022/05/03 05:40:36;;;;;;;5.00;4.15;;;;;;;13.61;100.00;99374.31;6251458;22;20102;-62
2022/05/03 05:43:21;;;;;;;6.25;3.85;;;;;;;13.64;100.00;99339.56;6285255;22;20035;-63
2022/05/03 05:46:05;;;;;;;5.15;4.18;;;;;;;13.86;100.00;99371.56;6286860;22;20110;-64
2022/05/03 05:48:50;;;;;;;5.72;3.80;;;;;;;13.86;100.00;99348.44;6276950;22;20026;-64
2022/05/03 05:51:34;;;;;;;8.57;4.10;;;;;;;13.85;100.00;99372.50;6252710;22;20026;-63
2022/05/03 05:54:18;;;;;;;6.57;3.70;;;;;;;13.81;100.00;99357.56;6254024;22;20074;-63
2022/05/03 05:57:03;;;;;;;4.63;3.72;;;;;;;13.49;100.00;99313.50;6286811;22;20038;-62
2022/05/03 05:59:49;;;;;;;5.68;3.38;;;;;;;13.91;100.00;99350.94;6253887;22;20069;-64
2022/05/03 06:02:33;;;;;;;5.05;3.47;;;;;;;13.89;100.00;99336.81;6254259;22;20074;-63
2022/05/03 06:05:17;;;;;;;4.72;3.92;;;;;;;14.02;100.00;99325.56;6286722;22;20073;-63
2022/05/03 06:08:02;;;;;;;4.97;3.35;;;;;;;13.75;100.00;99320.47;6287203;22;20476;-63
2022/05/03 06:10:49;;;;;;;6.10;4.13;;;;;;;13.72;100.00;99355.25;6253534;22;20026;-64
2022/05/03 06:13:34;;;;;;;5.72;3.80;;;;;;;13.72;100.00;99345.47;6265098;22;20030;-62
2022/05/03 06:16:20;;;;;;;7.90;4.18;;;;;;;13.93;100.00;99338.41;6287677;22;20034;-63
2022/05/03 06:19:04;;;;;;;11.93;3.60;;;;;;;13.92;100.00;99315.34;6287918;22;20141;-64
2022/05/03 06:21:49;;;;;;;9.52;4.00;;;;;;;13.97;100.00;99318.72;6287177;22;20077;-64
2022/05/03 06:24:34;;;;;;;5.90;3.72;;;;;;;14.40;100.00;99321.31;6286488;22;20038;-63
2022/05/03 06:27:18;;;;;;;4.60;3.60;;;;;;;14.54;100.00;99334.09;6264085;22;20026;-63
2022/05/03 06:30:07;;;;;;;5.38;3.80;;;;;;;14.94;100.00;99321.59;6254109;22;20031;-63
2022/05/03 06:32:51;;;;;;;8.27;3.90;;;;;;;15.04;100.00;99322.06;6287468;22;20030;-63
2022/05/03 06:35:36;;;;;;;;;;;;;;;15.00;100.00;99323.16;6253945;22;20027;-63
2022/05/03 06:38:20;;;;;;;5.50;3.80;;;;;;;15.10;100.00;99321.78;6287207;22;19937;-62
2022/05/03 06:41:05;;;;;;;12.50;4.30;;;;;;;14.86;100.00;99323.75;6286759;22;20049;-63
2022/05/03 06:43:50;;;;;;;7.93;3.70;;;;;;;14.98;100.00;99309.84;6253895;22;20027;-68
2022/05/03 06:46:34;;;;;;;8.75;3.88;;;;;;;15.47;100.00;99309.38;6287490;22;20081;-62
2022/05/03 06:49:20;;;;;;;13.00;4.05;;;;;;;15.77;100.00;99310.59;6286004;22;20475;-63
2022/05/03 06:52:04;;;;;;;6.88;3.95;;;;;;;15.92;100.00;99304.50;6276775;22;20461;-63
2022/05/03 06:54:49;;;;;;;8.07;3.75;;;;;;;16.20;100.00;99304.00;6286840;22;20103;-64
2022/05/03 06:57:33;;;;;;;6.60;3.60;;;;;;;16.17;100.00;99297.00;6286742;22;20437;-62
2022/05/03 07:00:18;;;;;;;4.18;3.33;;;;;;;16.43;100.00;99287.69;6276418;22;20373;-64
2022/05/03 07:03:03;;;;;;;6.38;3.40;;;;;;;16.39;100.00;99265.56;6283496;22;20523;-64
2022/05/03 07:05:48;;;;;;;6.20;3.25;;;;;;;16.97;100.00;99304.41;6240273;22;20026;-63
2022/05/03 07:08:33;;;;;;;4.05;3.45;;;;;;;17.05;100.00;99280.75;6285004;22;20115;-64
2022/05/03 07:11:17;;;;;;;4.88;3.50;;;;;;;16.55;100.00;99287.06;6251544;22;20032;-62
2022/05/03 07:14:01;;;;;;;12.02;3.28;;;;;;;17.03;100.00;99282.69;6275619;22;20071;-63
2022/05/03 07:16:46;;;;;;;6.55;3.28;;;;;;;16.85;100.00;99262.22;6286207;22;20058;-63
2022/05/03 07:22:46;;;;;;;13.73;3.40;;;;;;;16.99;100.00;99277.56;6191788;23;20526;-63
2022/05/03 07:25:32;;;;;;;4.00;3.28;;;;;;;16.87;100.00;99268.38;6193103;23;20083;-63
2022/05/03 07:28:17;;;;;;;5.93;3.40;;;;;;;16.93;100.00;99256.47;6171937;23;20068;-65
2022/05/03 07:31:03;;;;;;;7.57;2.90;;;;;;;16.85;100.00;99258.69;6185038;23;20060;-63
2022/05/03 07:33:48;;;;;;;7.03;2.90;;;;;;;16.86;100.00;99258.59;6155459;23;20486;-63
2022/05/03 07:36:33;;;;;;;4.85;2.80;;;;;;;16.98;100.00;99255.25;6165024;23;20111;-66
2022/05/03 07:39:18;;;;;;;5.45;2.92;;;;;;;17.71;100.00;99244.91;6171244;23;20427;-64
2022/05/03 07:42:02;;;;;;;10.63;3.20;;;;;;;17.59;100.00;99242.03;6192656;23;20376;-63
2022/05/03 07:44:46;;;;;;;6.35;3.00;;;;;;;18.36;100.00;99240.22;6191782;23;20525;-64
2022/05/03 07:47:31;;;;;;;4.63;2.45;;;;;;;19.17;100.00;99229.75;6192266;23;20087;-67
2022/05/03 07:50:15;;;;;;;5.30;2.50;;;;;;;18.66;100.00;99239.22;6158432;23;20032;-64
2022/05/03 07:52:59;;;;;;;9.15;2.50;;;;;;;18.32;100.00;99234.16;6187011;23;20032;-63
2022/05/03 07:55:45;;;;;;;3.08;2.63;;;;;;;17.97;100.00;99211.22;6187377;23;20485;-66
2022/05/03 07:58:30;;;;;;;5.03;2.80;;;;;;;18.88;100.00;99195.78;6209413;23;20466;-66
2022/05/03 08:01:14;;;;;;;6.63;2.80;;;;;;;18.66;100.00;99227.66;6250457;23;20081;-64
2022/05/03 08:03:58;;;;;;;6.68;2.60;;;;;;;18.26;100.00;99196.94;6247837;23;20081;-62
2022/05/03 08:06:43;;;;;;;11.30;2.90;;;;;;;19.10;100.00;99212.31;6239796;23;20504;-64
2022/05/03 08:09:28;;;;;;;6.78;2.53;;;;;;;20.27;92.50;99228.75;6247805;23;20027;-64
2022/05/03 08:12:13;;;;;;;7.82;3.28;;;;;;;19.21;92.65;99217.84;6227393;23;20095;-63
2022/05/03 08:14:57;;;;;;;10.80;2.55;;;;;;;18.59;90.32;99227.13;6227842;23;20234;-63
2022/05/03 08:17:42;;;;;;;9.90;3.05;;;;;;;18.64;94.29;99186.56;6250367;23;20090;-64
2022/05/03 08:20:26;;;;;;;11.63;2.75;;;;;;;19.93;85.33;99176.28;6250444;23;20027;-64
2022/05/03 08:23:11;;;;;;;8.07;2.58;;;;;;;20.47;82.28;99209.41;6248325;23;20082;-74
2022/05/03 08:25:55;;;;;;;7.57;2.60;;;;;;;19.54;86.38;99172.69;6250494;23;20077;-65
2022/05/03 08:28:41;;;;;;;13.73;2.83;;;;;;;18.91;81.36;99183.03;6193923;23;20023;-65
2022/05/03 08:31:26;;;;;;;6.25;2.25;;;;;;;19.02;80.44;99172.47;6250366;23;20038;-64
2022/05/03 08:34:11;;;;;;;8.38;2.28;;;;;;;19.40;79.44;99164.66;6227867;23;20234;-65
2022/05/03 08:43:01;;;;;;;15.63;2.97;;;;;;;19.44;73.82;99201.13;6252281;23;20031;-63
2022/05/03 08:45:50;;;;;;;13.25;2.45;;;;;;;19.35;72.49;99194.56;6215352;23;20074;-64
2022/05/03 08:48:37;;;;;;;18.38;2.72;;;;;;;19.76;69.77;99167.63;6228307;23;20031;-65
2022/05/03 08:51:23;;;;;;;7.95;2.25;;;;;;;22.15;58.39;99180.81;6278770;22;20054;-65
2022/05/03 08:54:09;;;;;;;6.80;2.08;;;;;;;23.58;48.29;99186.44;6247284;22;20062;-70
2022/05/03 08:56:55;;;;;;;11.88;2.72;;;;;;;23.07;52.91;99182.56;6280603;22;20026;-65
2022/05/03 08:59:47;;;;;;;7.75;2.20;;;;;;;24.40;45.63;99166.88;6278366;22;20026;-65
2022/05/03 09:02:35;;;;;;;14.15;2.40;;;;;;;24.69;41.09;99163.38;6280716;22;20093;-66
2022/05/03 09:05:22;;;;;;;14.13;2.58;;;;;;;25.69;37.48;99133.53;6270780;22;20027;-63
2022/05/03 09:08:09;;;;;;;22.38;2.17;;;;;;;25.13;36.01;99159.50;6279043;22;20026;-64
2022/05/03 09:10:54;;;;;;;10.82;2.40;;;;;;;24.90;38.49;99141.69;6270900;22;20023;-62
2022/05/03 09:13:38;;;;;;;7.75;2.50;;;;;;;24.97;39.55;99153.72;6268639;22;20027;-65
2022/05/03 09:16:23;;;;;;;7.03;2.42;;;;;;;23.64;42.34;99164.31;6247239;22;20039;-63
2022/05/03 09:19:21;;;;;;;9.52;1.98;;;;;;;24.75;43.08;99143.00;6281549;22;20245;-63
2022/05/03 09:25:13;;;;;;;5.38;2.38;;;;;;;25.71;38.59;99135.13;6249974;22;20031;-65
2022/05/03 09:28:06;;;;;;;18.33;2.95;;;;;;;26.20;38.47;99149.63;6282909;22;20449;-64
2022/05/03 09:30:51;;;;;;;6.32;2.90;;;;;;;25.91;36.17;99126.00;6227017;22;20288;-64
2022/05/03 09:33:39;;;;;;;6.30;2.20;;;;;;;25.11;40.31;99135.19;6228289;22;20414;-63
2022/05/03 09:36:24;;;;;;;5.78;1.95;;;;;;;24.04;41.48;99121.22;6259611;22;20162;-62
2022/05/03 09:39:21;;;;;;;6.20;1.70;;;;;;;22.58;43.68;99103.59;6258055;22;20030;-72
2022/05/03 09:42:11;;;;;;;6.93;2.40;;;;;;;22.69;46.49;99133.34;6283182;22;20069;-63
2022/05/03 09:45:02;;;;;;;5.05;2.42;;;;;;;24.32;40.97;99121.47;6282360;22;20031;-63
2022/05/03 09:47:53;;;;;;;8.43;3.20;;;;;;;25.25;37.50;99105.00;6236322;22;20481;-64
2022/05/03 09:50:42;;;;;;;10.60;2.92;;;;;;;25.46;35.42;99094.91;6282224;22;20031;-68
2022/05/03 09:53:26;;;;;;;3.42;2.20;;;;;;;24.82;34.94;99088.13;6249080;22;20095;-64
2022/05/03 09:56:12;;;;;;;8.27;2.20;;;;;;;24.35;36.59;99099.50;6282441;22;20030;-64
2022/05/03 09:59:06;;;;;;;7.10;1.80;;;;;;;25.00;35.56;99104.63;6282700;22;20102;-64
2022/05/03 10:01:51;;;;;;;7.32;2.08;;;;;;;26.31;33.09;99092.41;6247983;22;20047;-66
2022/05/03 10:04:35;;;;;;;;;;;;;;;28.03;31.16;99106.97;6282908;22;20058;-64
2022/05/03 10:07:21;;;;;;;14.15;2.38;;;;;;;27.58;29.43;99100.69;6282765;22;19918;-65
2022/05/03 10:10:10;;;;;;;13.93;3.08;;;;;;;26.64;29.67;99079.19;6282470;22;20027;-64
2022/05/03 10:12:55;;;;;;;7.50;2.67;;;;;;;24.87;33.86;99069.56;6282513;22;20358;-65
2022/05/03 10:22:01;;;;;;;6.85;2.70;;;;;;;22.84;41.26;99090.72;6280169;22;20026;-71
2022/05/03 10:24:55;;;;;;;3.05;2.40;;;;;;;22.31;43.56;99073.31;6259868;22;20077;-63
2022/05/03 10:27:57;;;;;;;12.07;2.20;;;;;;;23.16;41.87;99078.13;6228023;22;20473;-65
2022/05/03 10:31:04;;;;;;;5.90;2.20;;;;;;;22.96;44.53;99078.91;6279032;22;20034;-64
2022/05/03 10:33:48;;;;;;;8.43;2.50;;;;;;;24.48;38.84;99059.50;6264912;22;20022;-65
2022/05/03 10:36:32;;;;;;;3.58;2.08;;;;;;;24.82;36.51;99057.41;6282317;22;20042;-66
2022/05/03 10:39:21;;;;;;;;;;;;;;;26.21;33.16;99077.94;6270490;22;20094;-64
2022/05/03 10:42:12;;;;;;;13.13;2.50;;;;;;;25.47;31.50;99063.19;6281729;22;19942;-63
2022/05/03 10:45:01;;;;;;;7.10;2.00;;;;;;;25.54;31.75;99056.19;6282042;22;20031;-64
2022/05/03 10:47:53;;;;;;;12.32;2.53;;;;;;;26.05;31.06;99058.66;6246702;22;20025;-65
2022/05/03 10:50:38;;;;;;;5.80;1.90;;;;;;;26.73;30.35;99063.84;6249830;23;20027;-65
2022/05/03 10:53:24;;;;;;;7.07;2.00;;;;;;;26.25;29.04;99044.03;6249758;23;20026;-63
2022/05/03 10:56:10;;;;;;;14.77;2.20;;;;;;;24.62;32.27;99061.91;6250162;23;20093;-66
2022/05/03 10:59:15;;;;;;;5.45;1.70;;;;;;;24.19;34.00;99050.34;6251018;23;20480;-64
2022/05/03 11:02:06;;;;;;;8.95;2.08;;;;;;;23.74;34.88;99058.81;6244276;23;20031;-63
2022/05/03 11:05:16;;;;;;;9.68;1.90;;;;;;;24.08;36.41;99049.53;6201637;23;20027;-64
2022/05/03 11:08:17;;;;;;;6.75;1.65;;;;;;;23.94;36.66;99031.78;6255255;23;20026;-62
2022/05/03 11:11:01;;;;;;;6.70;1.92;;;;;;;23.26;38.07;99036.69;6254027;23;20370;-63
2022/05/03 11:13:46;;;;;;;;;;;;;;;23.11;39.33;99029.84;6245828;23;20031;-63
2022/05/03 11:16:34;;;;;;;4.47;1.70;;;;;;;22.52;38.68;99009.53;6255634;23;19922;-63
2022/05/03 11:19:23;;;;;;;5.45;1.60;;;;;;;22.09;40.80;98989.56;6255181;23;20027;-64
2022/05/03 11:22:15;;;;;;;5.30;2.00;;;;;;;22.89;39.17;99019.06;6254356;23;20085;-64
2022/05/03 11:25:07;;;;;;;10.38;3.47;;;;;;;23.53;36.58;99006.50;6254605;23;20023;-64
2022/05/03 11:27:52;;;;;;;6.88;1.63;;;;;;;23.22;36.33;99005.47;6243103;23;20034;-63
2022/05/03 11:30:39;;;;;;;4.20;1.70;;;;;;;23.13;36.98;99014.34;6238537;23;20101;-64
2022/05/03 11:33:23;;;;;;;7.60;1.50;;;;;;;23.40;34.53;99005.78;6251180;23;20018;-63
2022/05/03 11:36:07;;;;;;;;;;;;;;;22.94;35.00;99011.41;6251571;23;20023;-63
2022/05/03 11:38:57;;;;;;;3.55;1.50;;;;;;;23.29;34.05;98995.03;6255101;23;19983;-63
2022/05/03 11:41:42;;;;;;;9.05;1.60;;;;;;;22.93;33.20;98990.78;6241859;23;20038;-64
2022/05/03 11:44:30;;;;;;;6.25;1.30;;;;;;;23.28;31.89;98982.47;6255784;23;20109;-62
2022/05/03 11:47:15;;;;;;;6.38;1.42;;;;;;;23.03;31.23;98988.19;6254432;23;20456;-62
2022/05/03 11:49:59;;;;;;;8.98;1.52;;;;;;;22.88;33.63;98982.19;6241460;23;20035;-64
2022/05/03 11:56:00;;;;;;;12.25;1.70;;;;;;;23.82;32.33;98973.25;6255314;23;20019;-63
2022/05/03 11:58:45;;;;;;;3.53;1.52;;;;;;;23.81;33.19;98932.75;6254224;23;20019;-64
2022/05/03 12:01:34;;;;;;;4.95;1.52;;;;;;;23.45;32.12;98971.94;6255408;23;20430;-65
2022/05/03 12:04:20;;;;;;;3.42;1.23;;;;;;;23.15;33.37;98944.75;6255236;23;20027;-65
2022/05/03 12:07:05;;;;;;;3.03;1.58;;;;;;;23.44;34.95;98956.69;6255981;23;20046;-64
2022/05/03 12:09:49;;;;;;;4.75;1.60;;;;;;;22.78;32.52;98972.28;6253668;23;20342;-65
2022/05/03 12:12:43;;;;;;;;;;;;;;;22.25;35.98;98964.91;6245701;23;20070;-68
2022/05/03 12:15:28;;;;;;;4.18;1.42;;;;;;;21.79;35.04;98937.97;6248939;23;19965;-67
2022/05/03 12:18:23;;;;;;;4.95;1.55;;;;;;;22.54;35.76;98949.94;6255697;23;20027;-68
2022/05/03 12:21:17;;;;;;;2.67;1.65;;;;;;;22.91;35.18;98938.69;6256062;23;20027;-68
2022/05/03 12:24:04;;;;;;;8.60;1.70;;;;;;;22.60;33.16;98915.19;6241667;23;20145;-67
2022/05/03 12:26:48;;;;;;;3.03;1.50;;;;;;;21.84;35.51;98944.75;6251085;23;20019;-66
2022/05/03 12:29:33;;;;;;;;;;;;;;;21.67;37.26;98930.81;6243276;23;20030;-65
2022/05/03 12:32:18;;;;;;;;;;;;;;;21.49;38.61;98943.06;6250588;23;19922;-64
2022/05/03 12:35:04;;;;;;;;;;;;;;;21.99;37.60;98934.56;6253007;23;19968;-67
2022/05/03 12:37:51;;;;;;;6.22;2.25;;;;;;;22.17;36.26;98933.13;6240210;23;19915;-66
2022/05/03 12:53:32;;;;;;;3.95;1.40;;;;;;;22.81;35.15;98917.94;6241944;22;20028;-66
2022/05/03 12:59:21;;;;;;;3.83;1.20;;;;;;;22.30;34.94;98895.19;6242636;23;20113;-68
2022/05/03 13:02:07;;;;;;;5.82;1.15;;;;;;;22.11;34.75;98892.25;6220555;23;20149;-67
2022/05/03 13:04:53;;;;;;;5.18;1.40;;;;;;;22.73;35.12;98917.69;6241999;23;20121;-66
2022/05/03 13:07:37;;;;;;;5.72;1.70;;;;;;;22.41;34.39;98916.75;6254177;23;20334;-66
2022/05/03 13:10:22;;;;;;;5.07;1.63;;;;;;;21.57;34.65;98906.38;6253210;23;20023;-67
2022/05/03 13:13:08;;;;;;;5.32;1.40;;;;;;;21.49;36.89;98929.56;6242383;23;20051;-65
2022/05/03 13:15:52;;;;;;;1.50;1.17;;;;;;;21.55;37.27;98908.34;6251693;23;20484;-64
2022/05/03 13:18:37;;;;;;;3.47;1.40;;;;;;;21.32;37.87;98881.47;6252025;23;20027;-65
2022/05/03 13:21:22;;;;;;;7.40;1.80;;;;;;;21.44;37.62;98886.75;6253069;23;20093;-65
2022/05/03 13:24:26;;;;;;;4.03;2.50;;;;;;;21.81;36.63;98880.22;6241454;23;20050;-65
2022/05/03 13:27:17;;;;;;;5.30;2.20;;;;;;;21.66;35.19;98907.50;6252543;23;20019;-67
2022/05/03 13:30:04;;;;;;;3.17;1.27;;;;;;;21.73;35.83;98892.59;6243235;23;20380;-65
2022/05/03 13:33:26;;;;;;;6.25;1.80;;;;;;;21.92;37.44;98919.84;6253005;23;20047;-65
2022/05/03 13:42:22;;;;;;;5.38;2.30;;;;;;;21.06;37.27;98888.00;6254317;23;20031;-64
2022/05/03 13:45:06;;;;;;;6.43;1.75;;;;;;;20.79;38.88;98893.59;6254092;23;20031;-63
2022/05/03 13:47:51;;;;;;;3.05;1.45;;;;;;;20.82;39.35;98935.63;6254102;23;20361;-64
2022/05/03 13:50:40;;;;;;;1.92;1.10;;;;;;;20.96;39.20;98900.44;6243563;23;20034;-64
2022/05/03 13:53:26;;;;;;;2.50;1.30;;;;;;;20.71;40.15;98909.47;6253374;23;20024;-64
2022/05/03 13:56:14;;;;;;;2.95;1.35;;;;;;;20.44;40.64;98908.81;6231191;23;20127;-62